createdAt,value
2022-09-24T00:02:11.643Z,100200.99
2022-09-24T00:04:43.874Z,100202.77
2022-09-24T00:07:15.915Z,100206.65
2022-09-24T00:09:48.440Z,100206.16
2022-09-24T00:12:21.922Z,100203.90
2022-09-24T00:14:54.103Z,100201.36
2022-09-24T00:17:26.306Z,100200.41
2022-09-24T00:19:58.438Z,100201.53
2022-09-24T00:22:30.471Z,100203.69
2022-09-24T00:25:20.125Z,100197.48
2022-09-24T00:27:52.154Z,100198.21
2022-09-24T00:30:24.275Z,100197.73
2022-09-24T00:32:56.276Z,100191.92
2022-09-24T00:35:28.269Z,100193.38
2022-09-24T00:38:00.200Z,100188.42
2022-09-24T00:40:35.351Z,100189.46
2022-09-24T00:43:25.306Z,100190.36
2022-09-24T00:46:01.335Z,100191.77
2022-09-24T00:48:34.303Z,100189.94
2022-09-24T00:51:08.737Z,100188.56
2022-09-24T00:53:41.521Z,100185.80
2022-09-24T00:56:16.740Z,100182.17
2022-09-24T00:58:52.821Z,100181.55
2022-09-24T01:01:26.768Z,100182.85
2022-09-24T01:04:01.500Z,100181.16
2022-09-24T01:06:33.758Z,100176.00
2022-09-24T01:09:06.276Z,100174.67
2022-09-24T01:11:50.656Z,100176.27
2022-09-24T01:14:39.999Z,100173.00
2022-09-24T01:17:22.508Z,100173.23
2022-09-24T01:20:12.472Z,100172.42
2022-09-24T01:23:04.483Z,100173.16
2022-09-24T01:25:48.739Z,100169.95
2022-09-24T01:28:39.180Z,100168.59
2022-09-24T01:31:17.968Z,100169.69
2022-09-24T01:33:54.607Z,100169.20
2022-09-24T01:36:29.528Z,100167.32
2022-09-24T01:39:03.321Z,100163.21
2022-09-24T01:41:36.429Z,100158.91
2022-09-24T01:44:09.443Z,100161.17
2022-09-24T01:46:42.570Z,100158.77
2022-09-24T01:49:14.748Z,100160.58
2022-09-24T01:51:52.036Z,100158.39
2022-09-24T01:54:30.748Z,100161.55
2022-09-24T01:57:15.198Z,100157.77
2022-09-24T01:59:55.341Z,100155.56
2022-09-24T02:02:31.934Z,100155.41
2022-09-24T02:05:09.222Z,100156.66
2022-09-24T02:07:50.775Z,100158.45
2022-09-24T02:10:23.415Z,100159.55
2022-09-24T02:13:03.848Z,100155.11
2022-09-24T02:15:40.491Z,100152.09
2022-09-24T02:18:15.755Z,100156.70
2022-09-24T02:20:48.668Z,100156.10
2022-09-24T02:23:25.682Z,100159.30
2022-09-24T02:26:02.575Z,100156.66
2022-09-24T02:28:35.799Z,100158.55
2022-09-24T02:31:11.873Z,100163.80
2022-09-24T02:34:04.397Z,100166.44
2022-09-24T02:36:37.100Z,100160.14
2022-09-24T02:39:09.354Z,100161.04
2022-09-24T02:41:42.723Z,100163.52
2022-09-24T02:44:16.200Z,100162.38
2022-09-24T02:46:48.894Z,100157.92
2022-09-24T02:49:21.226Z,100157.99
2022-09-24T02:51:53.261Z,100158.90
2022-09-24T02:54:26.918Z,100151.52
2022-09-24T02:56:59.102Z,100149.95
2022-09-24T02:59:31.167Z,100148.21
2022-09-24T03:02:03.518Z,100146.48
2022-09-24T03:04:36.228Z,100145.09
2022-09-24T03:07:09.364Z,100145.08
2022-09-24T03:09:41.335Z,100145.55
2022-09-24T03:12:14.182Z,100148.48
2022-09-24T03:14:46.242Z,100149.34
2022-09-24T03:17:18.362Z,100146.73
2022-09-24T03:19:50.538Z,100142.03
2022-09-24T03:22:22.542Z,100143.38
2022-09-24T03:24:54.795Z,100144.02
2022-09-24T03:27:26.839Z,100141.55
2022-09-24T03:30:16.515Z,100137.58
2022-09-24T03:32:50.365Z,100137.97
2022-09-24T03:35:22.495Z,100134.21
2022-09-24T03:37:54.622Z,100131.65
2022-09-24T03:40:26.687Z,100130.29
2022-09-24T03:42:58.754Z,100132.85
2022-09-24T03:45:30.826Z,100132.27
2022-09-24T03:48:03.123Z,100132.73
2022-09-24T03:50:36.820Z,100137.54
2022-09-24T03:53:08.932Z,100138.02
2022-09-24T03:55:45.315Z,100136.59
2022-09-24T03:58:18.435Z,100139.33
2022-09-24T04:00:52.211Z,100137.64
2022-09-24T04:03:24.698Z,100144.08
2022-09-24T04:05:56.801Z,100143.79
2022-09-24T04:08:29.056Z,100147.11
2022-09-24T04:11:01.474Z,100145.24
2022-09-24T04:13:33.871Z,100147.50
2022-09-24T04:16:06.829Z,100149.77
2022-09-24T04:18:39.832Z,100152.59
2022-09-24T04:21:12.437Z,100154.36
2022-09-24T04:23:44.650Z,100151.48
2022-09-24T04:26:17.776Z,100146.00
2022-09-24T04:28:50.569Z,100144.13
2022-09-24T04:31:23.688Z,100146.58
2022-09-24T04:33:56.023Z,100142.81
2022-09-24T04:36:28.642Z,100139.55
2022-09-24T04:39:00.677Z,100144.58
2022-09-24T04:41:35.160Z,100143.88
2022-09-24T04:44:07.311Z,100140.59
2022-09-24T04:46:41.015Z,100146.91
2022-09-24T04:49:14.230Z,100144.94
2022-09-24T04:51:46.233Z,100147.17
2022-09-24T04:54:18.262Z,100148.36
2022-09-24T04:56:50.518Z,100149.20
2022-09-24T04:59:23.197Z,100150.48
2022-09-24T05:01:55.695Z,100150.41
2022-09-24T05:04:27.952Z,100149.06
2022-09-24T05:06:59.975Z,100145.25
2022-09-24T05:09:32.689Z,100146.31
2022-09-24T05:12:06.319Z,100145.24
2022-09-24T05:14:38.578Z,100139.33
2022-09-24T05:17:10.608Z,100136.23
2022-09-24T05:19:43.233Z,100142.98
2022-09-24T05:22:15.301Z,100140.23
2022-09-24T05:24:47.415Z,100140.80
2022-09-24T05:27:20.439Z,100133.49
2022-09-24T05:29:53.038Z,100131.39
2022-09-24T05:32:25.697Z,100129.58
2022-09-24T05:34:57.830Z,100126.45
2022-09-24T05:37:29.965Z,100125.98
2022-09-24T05:40:22.543Z,100121.20
2022-09-24T05:43:00.399Z,100119.86
2022-09-24T05:45:33.531Z,100122.66
2022-09-24T05:48:05.841Z,100120.60
2022-09-24T05:50:38.069Z,100122.45
2022-09-24T05:53:10.650Z,100120.15
2022-09-24T05:55:43.609Z,100122.14
2022-09-24T05:58:16.098Z,100122.34
2022-09-24T06:00:48.131Z,100124.83
2022-09-24T06:03:21.541Z,100128.70
2022-09-24T06:05:53.824Z,100129.70
2022-09-24T06:08:25.874Z,100133.58
2022-09-24T06:11:02.688Z,100131.04
2022-09-24T06:13:35.667Z,100133.45
2022-09-24T06:16:11.835Z,100132.38
2022-09-24T06:18:45.449Z,100134.21
2022-09-24T06:21:18.937Z,100136.81
2022-09-24T06:23:51.406Z,100138.85
2022-09-24T06:26:26.703Z,100133.86
2022-09-24T06:29:04.445Z,100134.38
2022-09-24T06:31:37.573Z,100134.11
2022-09-24T06:34:10.282Z,100132.55
2022-09-24T06:36:42.338Z,100132.95
2022-09-24T06:39:14.524Z,100131.91
2022-09-24T06:41:47.108Z,100132.55
2022-09-24T06:44:21.090Z,100132.13
2022-09-24T06:46:53.886Z,100137.16
2022-09-24T06:49:30.179Z,100134.63
2022-09-24T06:52:05.993Z,100141.27
2022-09-24T06:54:38.832Z,100136.73
2022-09-24T06:57:11.329Z,100142.35
2022-09-24T06:59:43.448Z,100141.04
2022-09-24T07:02:15.561Z,100141.73
2022-09-24T07:04:48.045Z,100141.76
2022-09-24T07:07:33.325Z,100146.23
2022-09-24T07:10:08.343Z,100142.23
2022-09-24T07:12:42.667Z,100141.31
2022-09-24T07:15:15.341Z,100146.98
2022-09-24T07:17:47.373Z,100148.28
2022-09-24T07:20:19.691Z,100150.14
2022-09-24T07:22:51.774Z,100153.38
2022-09-24T07:25:24.185Z,100153.13
2022-09-24T07:27:56.318Z,100153.32
2022-09-24T07:30:28.345Z,100153.20
2022-09-24T07:33:00.962Z,100152.46
2022-09-24T07:35:33.575Z,100150.91
2022-09-24T07:38:07.631Z,100149.77
2022-09-24T07:40:39.845Z,100152.33
2022-09-24T07:43:14.295Z,100153.83
2022-09-24T07:45:47.580Z,100149.52
2022-09-24T07:48:19.964Z,100141.90
2022-09-24T07:50:52.338Z,100136.09
2022-09-24T07:53:24.838Z,100135.30
2022-09-24T07:56:02.071Z,100133.23
2022-09-24T07:58:34.243Z,100127.86
2022-09-24T08:01:06.454Z,100127.55
2022-09-24T08:03:40.825Z,100129.45
2022-09-24T08:06:13.439Z,100128.48
2022-09-24T08:08:45.545Z,100126.05
2022-09-24T08:11:18.157Z,100127.11
2022-09-24T08:13:51.410Z,100126.63
2022-09-24T08:16:23.548Z,100126.01
2022-09-24T08:18:55.728Z,100123.01
2022-09-24T08:21:29.049Z,100126.69
2022-09-24T08:24:01.344Z,100126.60
2022-09-24T08:26:33.531Z,100127.67
2022-09-24T08:29:06.097Z,100127.85
2022-09-24T08:31:38.461Z,100121.80
2022-09-24T08:34:10.536Z,100121.52
2022-09-24T08:36:43.547Z,100121.91
2022-09-24T08:39:16.305Z,100123.17
2022-09-24T08:41:58.153Z,100125.18
2022-09-24T08:44:54.208Z,100123.29
2022-09-24T08:47:39.041Z,100123.52
2022-09-24T08:50:16.884Z,100123.59
2022-09-24T08:53:14.318Z,100122.17
2022-09-24T08:55:50.652Z,100126.74
2022-09-24T08:58:46.271Z,100124.84
2022-09-24T09:01:29.995Z,100123.45
2022-09-24T09:04:11.834Z,100124.06
2022-09-24T09:06:56.299Z,100119.94
2022-09-24T09:09:34.196Z,100121.84
2022-09-24T09:12:12.439Z,100111.65
2022-09-24T09:14:51.000Z,100108.27
2022-09-24T09:17:36.119Z,100108.71
2022-09-24T09:20:12.740Z,100109.83
2022-09-24T09:22:49.461Z,100106.55
2022-09-24T09:25:28.460Z,100109.45
2022-09-24T09:28:04.093Z,100107.97
2022-09-24T09:30:43.763Z,100109.41
2022-09-24T09:33:31.298Z,100105.96
2022-09-24T09:36:11.783Z,100100.36
2022-09-24T09:38:51.150Z,100104.77
2022-09-24T09:41:31.242Z,100101.96
2022-09-24T09:44:12.884Z,100099.34
2022-09-24T09:46:53.049Z,100101.80
2022-09-24T09:49:29.170Z,100104.08
2022-09-24T09:52:03.525Z,100107.63
2022-09-24T09:54:43.541Z,100103.28
2022-09-24T09:57:19.982Z,100101.71
2022-09-24T09:59:54.985Z,100108.25
2022-09-24T10:02:29.508Z,100106.53
2022-09-24T10:05:03.675Z,100105.19
2022-09-24T10:07:47.687Z,100103.80
2022-09-24T10:10:24.083Z,100105.55
2022-09-24T10:12:56.183Z,100102.59
2022-09-24T10:15:28.271Z,100098.91
2022-09-24T10:18:03.028Z,100105.00
2022-09-24T10:20:36.866Z,100103.35
2022-09-24T10:23:19.532Z,100104.66
2022-09-24T10:26:00.221Z,100104.43
2022-09-24T10:28:52.678Z,100109.14
2022-09-24T10:31:28.187Z,100110.19
2022-09-24T10:34:02.562Z,100109.14
2022-09-24T10:36:35.032Z,100109.10
2022-09-24T10:39:14.182Z,100104.65
2022-09-24T10:41:52.035Z,100102.02
2022-09-24T10:44:26.040Z,100101.26
2022-09-24T10:47:21.234Z,100099.29
2022-09-24T10:50:17.030Z,100103.91
2022-09-24T10:52:52.693Z,100097.98
2022-09-24T10:55:54.228Z,100099.75
2022-09-24T10:58:51.051Z,100097.96
2022-09-24T11:01:33.562Z,100100.46
2022-09-24T11:04:36.440Z,100099.69
2022-09-24T11:07:36.048Z,100101.98
2022-09-24T11:10:23.226Z,100098.45
2022-09-24T11:13:02.542Z,100099.96
2022-09-24T11:16:00.458Z,100097.68
2022-09-24T11:18:46.148Z,100102.23
2022-09-24T11:21:31.041Z,100096.13
2022-09-24T11:24:25.963Z,100096.77
2022-09-24T11:27:09.418Z,100089.59
2022-09-24T11:29:56.064Z,100093.55
2022-09-24T11:32:36.114Z,100091.77
2022-09-24T11:35:26.836Z,100090.95
2022-09-24T11:38:05.585Z,100090.09
2022-09-24T11:41:05.076Z,100094.27
2022-09-24T11:43:57.361Z,100083.48
2022-09-24T11:46:47.492Z,100086.32
2022-09-24T11:49:49.671Z,100084.66
2022-09-24T11:52:31.179Z,100086.73
2022-09-24T11:55:14.645Z,100077.02
2022-09-24T11:57:51.747Z,100075.02
2022-09-24T12:00:24.245Z,100081.16
2022-09-24T12:03:04.229Z,100075.13
2022-09-24T12:05:39.823Z,100071.23
2022-09-24T12:08:18.464Z,100067.98
2022-09-24T12:10:56.275Z,100064.44
2022-09-24T12:13:34.834Z,100056.73
2022-09-24T12:16:12.097Z,100055.23
2022-09-24T12:18:52.508Z,100062.16
2022-09-24T12:21:28.938Z,100054.96
2022-09-24T12:24:07.447Z,100048.83
2022-09-24T12:26:42.939Z,100046.09
2022-09-24T12:29:51.918Z,100046.37
2022-09-24T12:32:45.402Z,100047.35
2022-09-24T12:35:27.797Z,100052.66
2022-09-24T12:38:05.326Z,100049.74
2022-09-24T12:41:24.919Z,100047.61
2022-09-24T12:44:02.809Z,100045.99
2022-09-24T12:46:41.081Z,100045.05
2022-09-24T12:49:34.320Z,100045.77
2022-09-24T12:52:20.388Z,100047.41
2022-09-24T12:55:00.391Z,100044.13
2022-09-24T12:57:41.595Z,100038.02
2022-09-24T13:00:38.277Z,100042.05
2022-09-24T13:03:24.362Z,100038.88
2022-09-24T13:06:00.207Z,100040.14
2022-09-24T13:08:40.835Z,100041.18
2022-09-24T13:11:29.638Z,100043.20
2022-09-24T13:14:07.343Z,100045.16
2022-09-24T13:16:44.113Z,100050.59
2022-09-24T13:19:25.394Z,100051.81
2022-09-24T13:22:00.810Z,100046.96
2022-09-24T13:24:37.304Z,100047.98
2022-09-24T13:27:24.582Z,100052.44
2022-09-24T13:30:15.775Z,100047.02
2022-09-24T13:32:57.187Z,100049.14
2022-09-24T13:35:33.186Z,100047.36
2022-09-24T13:38:14.387Z,100048.20
2022-09-24T13:40:56.839Z,100043.46
2022-09-24T13:43:45.133Z,100041.52
2022-09-24T13:46:20.995Z,100042.73
2022-09-24T13:48:56.228Z,100042.99
2022-09-24T13:51:32.500Z,100045.99
2022-09-24T13:54:15.702Z,100046.51
2022-09-24T13:57:03.967Z,100043.02
2022-09-24T13:59:36.320Z,100040.19
2022-09-24T14:02:26.192Z,100038.35
2022-09-24T14:05:01.719Z,100041.69
2022-09-24T14:07:34.012Z,100036.09
2022-09-24T14:10:08.870Z,100039.48
2022-09-24T14:12:41.241Z,100042.02
2022-09-24T14:15:17.865Z,100038.13
2022-09-24T14:18:00.146Z,100036.14
2022-09-24T14:20:36.841Z,100037.91
2022-09-24T14:23:17.075Z,100037.23
2022-09-24T14:25:52.783Z,100030.67
2022-09-24T14:28:26.162Z,100031.35
2022-09-24T14:30:59.017Z,100035.34
2022-09-24T14:33:35.167Z,100030.73
2022-09-24T14:36:11.291Z,100025.02
2022-09-24T14:38:53.956Z,100028.80
2022-09-24T14:41:30.253Z,100028.64
2022-09-24T14:44:04.976Z,100025.05
2022-09-24T14:46:49.746Z,100028.77
2022-09-24T14:49:24.376Z,100025.52
2022-09-24T14:51:59.168Z,100024.47
2022-09-24T14:54:37.275Z,100020.77
2022-09-24T14:57:26.646Z,100020.19
2022-09-24T14:59:58.942Z,100024.00
2022-09-24T15:02:37.414Z,100020.09
2022-09-24T15:05:10.997Z,100019.27
2022-09-24T15:07:43.716Z,100015.16
2022-09-24T15:10:24.174Z,100014.09
2022-09-24T15:12:56.440Z,100012.09
2022-09-24T15:15:32.240Z,100012.89
2022-09-24T15:18:05.720Z,100011.71
2022-09-24T15:20:38.196Z,100013.64
2022-09-24T15:23:10.793Z,100014.70
2022-09-24T15:25:43.768Z,100013.91
2022-09-24T15:28:17.084Z,100013.23
2022-09-24T15:30:49.238Z,100012.70
2022-09-24T15:33:21.462Z,100014.33
2022-09-24T15:35:53.639Z,100010.15
2022-09-24T15:38:25.804Z,100010.12
2022-09-24T15:40:59.502Z,100011.75
2022-09-24T15:43:31.692Z,100009.98
2022-09-24T15:46:03.820Z,100011.40
2022-09-24T15:48:36.023Z,100013.19
2022-09-24T15:51:15.404Z,100011.14
2022-09-24T15:53:48.248Z,100011.80
2022-09-24T15:56:20.471Z,100010.33
2022-09-24T15:58:53.557Z,100014.05
2022-09-24T16:01:25.803Z,100014.08
2022-09-24T16:03:58.038Z,100014.80
2022-09-24T16:06:30.188Z,100017.05
2022-09-24T16:09:02.530Z,100013.55
2022-09-24T16:11:34.899Z,100014.40
2022-09-24T16:14:07.576Z,100017.02
2022-09-24T16:16:41.011Z,100017.25
2022-09-24T16:19:13.575Z,100018.71
2022-09-24T16:21:45.827Z,100018.17
2022-09-24T16:24:17.984Z,100016.12
2022-09-24T16:26:50.141Z,100018.64
2022-09-24T16:29:22.380Z,100018.55
2022-09-24T16:31:54.508Z,100023.04
2022-09-24T16:34:26.805Z,100023.28
2022-09-24T16:36:59.179Z,100023.79
2022-09-24T16:39:31.236Z,100024.02
2022-09-24T16:42:03.481Z,100021.34
2022-09-24T16:44:35.568Z,100019.52
2022-09-24T16:47:08.039Z,100021.02
2022-09-24T16:49:40.198Z,100021.63
2022-09-24T16:52:12.308Z,100021.04
2022-09-24T16:54:44.344Z,100022.48
2022-09-24T16:57:16.948Z,100023.80
2022-09-24T16:59:49.420Z,100015.52
2022-09-24T17:02:22.931Z,100017.38
2022-09-24T17:04:59.447Z,100016.46
2022-09-24T17:07:34.268Z,100018.66
2022-09-24T17:10:18.147Z,100018.91
2022-09-24T17:12:51.930Z,100016.70
2022-09-24T17:15:24.083Z,100019.42
2022-09-24T17:17:56.207Z,100017.83
2022-09-24T17:20:28.267Z,100021.50
2022-09-24T17:23:00.698Z,100019.00
2022-09-24T17:25:32.755Z,100019.65
2022-09-24T17:28:07.339Z,100017.47
2022-09-24T17:30:39.660Z,100020.73
2022-09-24T17:33:41.428Z,100022.96
2022-09-24T17:36:06.355Z,100020.11
2022-09-24T17:38:39.398Z,100019.39
2022-09-24T17:41:14.565Z,100024.76
2022-09-24T17:43:48.180Z,100021.42
2022-09-24T17:46:22.612Z,100020.38
2022-09-24T17:48:56.581Z,100023.65
2022-09-24T17:51:32.563Z,100029.07
2022-09-24T17:54:08.078Z,100026.27
2022-09-24T17:56:40.572Z,100025.80
2022-09-24T17:59:15.034Z,100029.04
2022-09-24T18:01:47.562Z,100030.44
2022-09-24T18:04:21.828Z,100033.91
2022-09-24T18:06:54.060Z,100035.26
2022-09-24T18:09:26.239Z,100038.02
2022-09-24T18:11:58.833Z,100040.88
2022-09-24T18:14:31.374Z,100037.96
2022-09-24T18:17:04.820Z,100036.57
2022-09-24T18:19:37.141Z,100037.44
2022-09-24T18:22:09.269Z,100038.83
2022-09-24T18:24:42.084Z,100036.53
2022-09-24T18:27:16.106Z,100038.04
2022-09-24T18:29:48.261Z,100038.17
2022-09-24T18:32:24.151Z,100036.07
2022-09-24T18:34:56.344Z,100037.95
2022-09-24T18:37:28.889Z,100042.52
2022-09-24T18:40:01.699Z,100042.70
2022-09-24T18:42:34.983Z,100043.21
2022-09-24T18:45:08.461Z,100042.84
2022-09-24T18:47:40.674Z,100041.15
2022-09-24T18:50:13.194Z,100042.20
2022-09-24T18:52:45.373Z,100047.04
2022-09-24T18:55:17.513Z,100052.94
2022-09-24T18:57:49.664Z,100056.53
2022-09-24T19:00:39.289Z,100057.05
2022-09-24T19:03:11.340Z,100055.67
2022-09-24T19:05:43.691Z,100051.36
2022-09-24T19:08:16.116Z,100055.02
2022-09-24T19:10:49.063Z,100056.59
2022-09-24T19:13:25.990Z,100059.92
2022-09-24T19:15:58.664Z,100062.09
2022-09-24T19:18:31.243Z,100060.95
2022-09-24T19:21:03.936Z,100059.63
2022-09-24T19:23:38.519Z,100056.22
2022-09-24T19:26:12.037Z,100056.40
2022-09-24T19:28:45.533Z,100053.28
2022-09-24T19:31:20.284Z,100054.45
2022-09-24T19:33:53.588Z,100053.56
2022-09-24T19:36:25.685Z,100055.80
2022-09-24T19:38:58.047Z,100058.45
2022-09-24T19:41:30.423Z,100058.67
2022-09-24T19:44:08.273Z,100060.59
2022-09-24T19:46:41.368Z,100055.70
2022-09-24T19:49:14.572Z,100057.95
2022-09-24T19:51:46.973Z,100055.14
2022-09-24T19:54:19.156Z,100055.23
2022-09-24T19:56:51.151Z,100054.13
2022-09-24T19:59:25.045Z,100052.64
2022-09-24T20:01:57.155Z,100050.97
2022-09-24T20:04:29.379Z,100050.99
2022-09-24T20:07:05.799Z,100051.23
2022-09-24T20:09:38.568Z,100053.19
2022-09-24T20:12:19.832Z,100046.42
2022-09-24T20:14:51.869Z,100051.70
2022-09-24T20:17:23.925Z,100052.98
2022-09-24T20:19:56.551Z,100050.75
2022-09-24T20:22:28.712Z,100048.38
2022-09-24T20:25:00.755Z,100046.16
2022-09-24T20:27:51.465Z,100045.02
2022-09-24T20:30:24.242Z,100043.02
2022-09-24T20:32:56.743Z,100044.30
2022-09-24T20:35:29.032Z,100042.44
2022-09-24T20:38:01.574Z,100038.10
2022-09-24T20:40:36.566Z,100041.44
2022-09-24T20:43:09.592Z,100037.50
2022-09-24T20:45:43.485Z,100039.06
2022-09-24T20:48:15.612Z,100036.27
2022-09-24T20:50:47.820Z,100038.15
2022-09-24T20:53:20.454Z,100040.90
2022-09-24T20:55:55.777Z,100042.63
2022-09-24T20:58:27.899Z,100045.06
2022-09-24T21:01:00.183Z,100045.81
2022-09-24T21:03:49.946Z,100042.19
2022-09-24T21:06:23.698Z,100043.07
2022-09-24T21:08:56.131Z,100042.94
2022-09-24T21:11:29.056Z,100043.19
2022-09-24T21:14:03.102Z,100041.71
2022-09-24T21:16:36.154Z,100043.52
2022-09-24T21:19:08.493Z,100049.34
2022-09-24T21:21:40.977Z,100048.86
2022-09-24T21:24:16.474Z,100051.73
2022-09-24T21:26:49.183Z,100045.50
2022-09-24T21:29:22.850Z,100050.45
2022-09-24T21:31:54.961Z,100052.46
2022-09-24T21:34:27.984Z,100052.01
2022-09-24T21:37:00.143Z,100056.47
2022-09-24T21:39:32.244Z,100051.87
2022-09-24T21:42:05.521Z,100049.30
2022-09-24T21:44:38.094Z,100048.86
2022-09-24T21:47:10.415Z,100044.56
2022-09-24T21:49:42.457Z,100041.89
2022-09-24T21:52:15.360Z,100041.25
2022-09-24T21:54:47.426Z,100041.68
2022-09-24T21:57:19.445Z,100042.77
2022-09-24T22:00:01.022Z,100046.31
2022-09-24T22:02:33.811Z,100043.10
2022-09-24T22:05:06.562Z,100042.99
2022-09-24T22:07:39.021Z,100042.19
2022-09-24T22:10:12.448Z,100043.96
2022-09-24T22:12:46.697Z,100041.02
2022-09-24T22:15:18.904Z,100040.36
2022-09-24T22:17:51.708Z,100040.09
2022-09-24T22:20:23.863Z,100040.68
2022-09-24T22:22:56.036Z,100041.13
2022-09-24T22:25:28.421Z,100043.31
2022-09-24T22:28:00.825Z,100047.36
2022-09-24T22:30:33.180Z,100046.55
2022-09-24T22:33:05.298Z,100046.09
2022-09-24T22:35:49.943Z,100047.80
2022-09-24T22:38:23.022Z,100041.75
2022-09-24T22:40:55.080Z,100037.97
2022-09-24T22:43:27.248Z,100039.19
2022-09-24T22:46:01.439Z,100035.52
2022-09-24T22:48:34.242Z,100034.36
2022-09-24T22:51:07.797Z,100029.35
2022-09-24T22:53:41.523Z,100027.80
2022-09-24T22:56:16.890Z,100025.08
2022-09-24T22:58:54.421Z,100028.95
2022-09-24T23:01:28.363Z,100021.21
2022-09-24T23:04:00.942Z,100019.37
2022-09-24T23:06:34.747Z,100011.46
2022-09-24T23:09:06.919Z,100014.17
2022-09-24T23:11:39.357Z,100011.38
2022-09-24T23:14:15.860Z,100016.39
2022-09-24T23:16:48.346Z,100014.83
2022-09-24T23:19:21.504Z,100016.87
2022-09-24T23:21:54.294Z,100011.86
2022-09-24T23:24:26.518Z,100014.19
2022-09-24T23:26:58.492Z,100011.83
2022-09-24T23:29:30.969Z,100012.05
2022-09-24T23:32:03.292Z,100010.91
2022-09-24T23:34:35.396Z,100009.30
2022-09-24T23:37:07.442Z,100010.61
2022-09-24T23:39:40.032Z,100013.46
2022-09-24T23:42:12.209Z,100010.10
2022-09-24T23:44:45.813Z,100012.27
2022-09-24T23:47:18.666Z,100011.66
2022-09-24T23:49:50.744Z,100013.30
2022-09-24T23:52:22.818Z,100007.81
2022-09-24T23:54:54.949Z,100004.25
2022-09-24T23:57:27.208Z,100001.21
2022-09-24T23:59:59.225Z,100001.83
